sensor_id;sensor_type;location;lat;lon;timestamp;pressure;altitude;pressure_sealevel;temperature;humidity
46127;BME280;31859;55.030;-1.550;2022-07-29T00:01:55;101078.66;;;16.52;100.00
46127;BME280;31859;55.030;-1.550;2022-07-29T00:04:22;101077.91;;;16.11;100.00
46127;BME280;31859;55.030;-1.550;2022-07-29T00:06:50;101077.07;;;15.73;100.00
46127;BME280;31859;55.030;-1.550;2022-07-29T00:09:18;101079.00;;;16.01;100.00
46127;BME280;31859;55.030;-1.550;2022-07-29T00:11:45;101079.06;;;16.62;100.00
46127;BME280;31859;55.030;-1.550;2022-07-29T00:14:12;101075.14;;;16.58;100.00
46127;BME280;31859;55.030;-1.550;2022-07-29T00:16:39;101076.73;;;17.03;100.00
46127;BME280;31859;55.030;-1.550;2022-07-29T00:19:06;101072.43;;;16.72;100.00
46127;BME280;31859;55.030;-1.550;2022-07-29T00:21:34;101075.13;;;15.67;100.00
46127;BME280;31859;55.030;-1.550;2022-07-29T00:24:01;101070.45;;;15.55;100.00
46127;BME280;31859;55.030;-1.550;2022-07-29T00:26:29;101071.87;;;15.71;100.00
46127;BME280;31859;55.030;-1.550;2022-07-29T00:28:56;101076.42;;;16.48;100.00
46127;BME280;31859;55.030;-1.550;2022-07-29T00:31:24;101080.19;;;16.51;100.00
46127;BME280;31859;55.030;-1.550;2022-07-29T00:33:51;101080.43;;;16.86;100.00
46127;BME280;31859;55.030;-1.550;2022-07-29T00:36:18;101078.07;;;17.04;100.00
46127;BME280;31859;55.030;-1.550;2022-07-29T00:38:46;101081.15;;;17.65;100.00
46127;BME280;31859;55.030;-1.550;2022-07-29T00:41:13;101081.71;;;15.63;100.00
46127;BME280;31859;55.030;-1.550;2022-07-29T00:43:41;101081.11;;;16.54;100.00
46127;BME280;31859;55.030;-1.550;2022-07-29T00:46:08;101082.84;;;16.12;100.00
46127;BME280;31859;55.030;-1.550;2022-07-29T00:48:35;101079.62;;;16.57;100.00
46127;BME280;31859;55.030;-1.550;2022-07-29T00:51:04;101080.45;;;17.30;100.00
46127;BME280;31859;55.030;-1.550;2022-07-29T00:53:32;101081.23;;;18.00;100.00
46127;BME280;31859;55.030;-1.550;2022-07-29T00:55:59;101081.94;;;18.03;100.00
46127;BME280;31859;55.030;-1.550;2022-07-29T00:58:26;101082.31;;;17.19;100.00
46127;BME280;31859;55.030;-1.550;2022-07-29T01:00:54;101079.01;;;17.88;100.00
46127;BME280;31859;55.030;-1.550;2022-07-29T01:03:21;101079.70;;;17.86;100.00
46127;BME280;31859;55.030;-1.550;2022-07-29T01:05:48;101078.12;;;17.87;100.00
46127;BME280;31859;55.030;-1.550;2022-07-29T01:08:16;101071.40;;;18.60;100.00
46127;BME280;31859;55.030;-1.550;2022-07-29T01:10:44;101071.98;;;18.21;100.00
46127;BME280;31859;55.030;-1.550;2022-07-29T01:13:13;101069.39;;;18.00;100.00
46127;BME280;31859;55.030;-1.550;2022-07-29T01:15:44;101070.68;;;17.26;100.00
46127;BME280;31859;55.030;-1.550;2022-07-29T01:18:18;101072.81;;;17.49;100.00
46127;BME280;31859;55.030;-1.550;2022-07-29T01:21:18;101074.77;;;17.84;100.00
46127;BME280;31859;55.030;-1.550;2022-07-29T01:24:39;101071.68;;;16.47;100.00
46127;BME280;31859;55.030;-1.550;2022-07-29T01:27:23;101072.92;;;17.70;100.00
46127;BME280;31859;55.030;-1.550;2022-07-29T01:29:55;101070.02;;;17.53;100.00
46127;BME280;31859;55.030;-1.550;2022-07-29T01:32:26;101072.35;;;17.64;100.00
46127;BME280;31859;55.030;-1.550;2022-07-29T01:35:00;101065.26;;;17.56;100.00
46127;BME280;31859;55.030;-1.550;2022-07-29T01:37:35;101062.80;;;16.81;100.00
46127;BME280;31859;55.030;-1.550;2022-07-29T01:40:10;101063.34;;;16.01;100.00
46127;BME280;31859;55.030;-1.550;2022-07-29T01:42:42;101062.66;;;16.34;100.00
46127;BME280;31859;55.030;-1.550;2022-07-29T01:45:14;101063.73;;;16.81;100.00
46127;BME280;31859;55.030;-1.550;2022-07-29T01:47:47;101062.06;;;16.81;100.00
46127;BME280;31859;55.030;-1.550;2022-07-29T01:50:18;101063.81;;;17.43;100.00
46127;BME280;31859;55.030;-1.550;2022-07-29T01:52:56;101065.85;;;17.57;100.00
46127;BME280;31859;55.030;-1.550;2022-07-29T01:55:28;101065.38;;;17.20;100.00
46127;BME280;31859;55.030;-1.550;2022-07-29T01:57:58;101063.69;;;16.44;100.00
46127;BME280;31859;55.030;-1.550;2022-07-29T02:00:26;101061.64;;;16.34;100.00
46127;BME280;31859;55.030;-1.550;2022-07-29T02:02:55;101062.32;;;16.16;100.00
46127;BME280;31859;55.030;-1.550;2022-07-29T02:05:24;101063.28;;;16.48;100.00
46127;BME280;31859;55.030;-1.550;2022-07-29T02:07:54;101066.44;;;16.26;100.00
46127;BME280;31859;55.030;-1.550;2022-07-29T02:10:25;101062.61;;;16.24;100.00
46127;BME280;31859;55.030;-1.550;2022-07-29T02:12:55;101057.99;;;15.85;100.00
46127;BME280;31859;55.030;-1.550;2022-07-29T02:15:24;101056.30;;;15.50;100.00
46127;BME280;31859;55.030;-1.550;2022-07-29T02:17:56;101051.56;;;14.68;100.00
46127;BME280;31859;55.030;-1.550;2022-07-29T02:20:26;101053.72;;;15.30;100.00
46127;BME280;31859;55.030;-1.550;2022-07-29T02:22:55;101052.37;;;14.68;100.00
46127;BME280;31859;55.030;-1.550;2022-07-29T02:25:24;101053.89;;;14.72;100.00
46127;BME280;31859;55.030;-1.550;2022-07-29T02:27:52;101051.25;;;15.36;100.00
46127;BME280;31859;55.030;-1.550;2022-07-29T02:30:22;101049.08;;;15.05;100.00
46127;BME280;31859;55.030;-1.550;2022-07-29T02:32:49;101052.25;;;14.97;100.00
46127;BME280;31859;55.030;-1.550;2022-07-29T02:35:19;101054.44;;;14.09;100.00
46127;BME280;31859;55.030;-1.550;2022-07-29T02:37:47;101047.10;;;14.60;100.00
46127;BME280;31859;55.030;-1.550;2022-07-29T02:40:15;101045.05;;;15.08;100.00
46127;BME280;31859;55.030;-1.550;2022-07-29T02:42:43;101044.89;;;14.22;100.00
46127;BME280;31859;55.030;-1.550;2022-07-29T02:45:11;101045.87;;;14.07;100.00
46127;BME280;31859;55.030;-1.550;2022-07-29T02:47:42;101046.34;;;13.89;100.00
46127;BME280;31859;55.030;-1.550;2022-07-29T02:50:13;101043.42;;;14.21;100.00
46127;BME280;31859;55.030;-1.550;2022-07-29T02:52:45;101047.81;;;14.21;100.00
46127;BME280;31859;55.030;-1.550;2022-07-29T02:55:18;101050.08;;;14.43;100.00
46127;BME280;31859;55.030;-1.550;2022-07-29T02:57:51;101049.21;;;13.94;100.00
46127;BME280;31859;55.030;-1.550;2022-07-29T03:00:21;101049.53;;;13.47;100.00
46127;BME280;31859;55.030;-1.550;2022-07-29T03:02:53;101050.55;;;13.85;100.00
46127;BME280;31859;55.030;-1.550;2022-07-29T03:05:21;101049.19;;;13.65;100.00
46127;BME280;31859;55.030;-1.550;2022-07-29T03:07:52;101050.10;;;14.11;100.00
46127;BME280;31859;55.030;-1.550;2022-07-29T03:10:21;101045.76;;;14.00;100.00
46127;BME280;31859;55.030;-1.550;2022-07-29T03:12:50;101046.43;;;13.88;100.00
46127;BME280;31859;55.030;-1.550;2022-07-29T03:15:18;101047.01;;;14.10;100.00
46127;BME280;31859;55.030;-1.550;2022-07-29T03:17:46;101047.07;;;13.48;100.00
46127;BME280;31859;55.030;-1.550;2022-07-29T03:20:14;101043.62;;;13.27;100.00
46127;BME280;31859;55.030;-1.550;2022-07-29T03:22:43;101043.48;;;13.44;100.00
46127;BME280;31859;55.030;-1.550;2022-07-29T03:25:11;101041.30;;;13.84;100.00
46127;BME280;31859;55.030;-1.550;2022-07-29T03:27:39;101042.80;;;13.77;100.00
46127;BME280;31859;55.030;-1.550;2022-07-29T03:30:08;101039.45;;;13.65;100.00
46127;BME280;31859;55.030;-1.550;2022-07-29T03:32:36;101039.28;;;14.01;100.00
46127;BME280;31859;55.030;-1.550;2022-07-29T03:35:05;101041.18;;;14.03;100.00
46127;BME280;31859;55.030;-1.550;2022-07-29T03:37:33;101044.95;;;13.99;100.00
46127;BME280;31859;55.030;-1.550;2022-07-29T03:40:02;101041.68;;;13.23;100.00
46127;BME280;31859;55.030;-1.550;2022-07-29T03:42:32;101042.44;;;13.04;100.00
46127;BME280;31859;55.030;-1.550;2022-07-29T03:45:03;101042.32;;;13.17;100.00
46127;BME280;31859;55.030;-1.550;2022-07-29T03:47:35;101041.34;;;12.75;100.00
46127;BME280;31859;55.030;-1.550;2022-07-29T03:50:06;101042.02;;;13.63;100.00
46127;BME280;31859;55.030;-1.550;2022-07-29T03:52:35;101045.53;;;13.50;100.00
46127;BME280;31859;55.030;-1.550;2022-07-29T03:55:04;101043.15;;;13.44;100.00
46127;BME280;31859;55.030;-1.550;2022-07-29T03:57:32;101041.32;;;13.24;100.00
46127;BME280;31859;55.030;-1.550;2022-07-29T04:00:03;101041.03;;;12.98;100.00
46127;BME280;31859;55.030;-1.550;2022-07-29T04:02:31;101039.47;;;12.86;100.00
46127;BME280;31859;55.030;-1.550;2022-07-29T04:04:59;101043.24;;;13.00;100.00
46127;BME280;31859;55.030;-1.550;2022-07-29T04:07:26;101044.02;;;12.94;100.00
46127;BME280;31859;55.030;-1.550;2022-07-29T04:09:54;101048.45;;;13.14;100.00
46127;BME280;31859;55.030;-1.550;2022-07-29T04:12:21;101047.21;;;13.23;100.00
46127;BME280;31859;55.030;-1.550;2022-07-29T04:14:48;101047.16;;;13.81;100.00
46127;BME280;31859;55.030;-1.550;2022-07-29T04:17:15;101047.15;;;14.16;100.00
46127;BME280;31859;55.030;-1.550;2022-07-29T04:19:42;101050.48;;;13.94;100.00
46127;BME280;31859;55.030;-1.550;2022-07-29T04:22:09;101052.04;;;13.89;100.00
46127;BME280;31859;55.030;-1.550;2022-07-29T04:24:36;101052.55;;;14.02;100.00
46127;BME280;31859;55.030;-1.550;2022-07-29T04:27:03;101055.02;;;13.43;100.00
46127;BME280;31859;55.030;-1.550;2022-07-29T04:29:31;101052.35;;;13.40;100.00
46127;BME280;31859;55.030;-1.550;2022-07-29T04:31:58;101049.85;;;13.04;100.00
46127;BME280;31859;55.030;-1.550;2022-07-29T04:34:24;101050.02;;;12.86;100.00
46127;BME280;31859;55.030;-1.550;2022-07-29T04:36:52;101050.66;;;12.46;100.00
46127;BME280;31859;55.030;-1.550;2022-07-29T04:39:19;101048.11;;;12.63;100.00
46127;BME280;31859;55.030;-1.550;2022-07-29T04:41:46;101047.73;;;12.75;100.00
46127;BME280;31859;55.030;-1.550;2022-07-29T04:44:13;101049.68;;;12.88;100.00
46127;BME280;31859;55.030;-1.550;2022-07-29T04:46:41;101051.15;;;13.71;100.00
46127;BME280;31859;55.030;-1.550;2022-07-29T04:49:08;101047.03;;;13.85;100.00
46127;BME280;31859;55.030;-1.550;2022-07-29T04:51:35;101052.18;;;14.42;100.00
46127;BME280;31859;55.030;-1.550;2022-07-29T04:54:02;101055.84;;;14.32;100.00
46127;BME280;31859;55.030;-1.550;2022-07-29T04:56:30;101055.75;;;14.36;100.00
46127;BME280;31859;55.030;-1.550;2022-07-29T04:58:57;101051.66;;;14.65;100.00
46127;BME280;31859;55.030;-1.550;2022-07-29T05:01:24;101055.90;;;15.51;100.00
46127;BME280;31859;55.030;-1.550;2022-07-29T05:03:51;101056.72;;;14.15;100.00
46127;BME280;31859;55.030;-1.550;2022-07-29T05:06:19;101054.21;;;14.83;100.00
46127;BME280;31859;55.030;-1.550;2022-07-29T05:08:46;101053.13;;;13.96;100.00
46127;BME280;31859;55.030;-1.550;2022-07-29T05:11:13;101053.19;;;14.17;100.00
46127;BME280;31859;55.030;-1.550;2022-07-29T05:13:40;101051.48;;;14.32;100.00
46127;BME280;31859;55.030;-1.550;2022-07-29T05:16:08;101049.30;;;14.22;100.00
46127;BME280;31859;55.030;-1.550;2022-07-29T05:18:35;101054.28;;;13.77;100.00
46127;BME280;31859;55.030;-1.550;2022-07-29T05:21:03;101056.70;;;13.93;100.00
46127;BME280;31859;55.030;-1.550;2022-07-29T05:23:30;101058.53;;;13.70;100.00
46127;BME280;31859;55.030;-1.550;2022-07-29T05:25:58;101057.20;;;13.74;100.00
46127;BME280;31859;55.030;-1.550;2022-07-29T05:28:25;101054.73;;;13.90;100.00
46127;BME280;31859;55.030;-1.550;2022-07-29T05:30:52;101051.43;;;14.40;100.00
46127;BME280;31859;55.030;-1.550;2022-07-29T05:33:19;101054.46;;;14.96;100.00
46127;BME280;31859;55.030;-1.550;2022-07-29T05:35:46;101055.27;;;15.32;100.00
46127;BME280;31859;55.030;-1.550;2022-07-29T05:38:13;101053.27;;;14.78;100.00
46127;BME280;31859;55.030;-1.550;2022-07-29T05:40:40;101055.55;;;15.57;100.00
46127;BME280;31859;55.030;-1.550;2022-07-29T05:43:07;101055.91;;;14.18;100.00
46127;BME280;31859;55.030;-1.550;2022-07-29T05:45:35;101056.45;;;14.67;100.00
46127;BME280;31859;55.030;-1.550;2022-07-29T05:48:02;101055.72;;;14.11;100.00
46127;BME280;31859;55.030;-1.550;2022-07-29T05:50:29;101056.36;;;14.29;100.00
46127;BME280;31859;55.030;-1.550;2022-07-29T05:52:56;101062.69;;;14.59;100.00
46127;BME280;31859;55.030;-1.550;2022-07-29T05:55:23;101056.67;;;14.21;100.00
46127;BME280;31859;55.030;-1.550;2022-07-29T05:57:52;101061.61;;;14.20;100.00
46127;BME280;31859;55.030;-1.550;2022-07-29T06:00:19;101057.23;;;13.61;100.00
46127;BME280;31859;55.030;-1.550;2022-07-29T06:02:46;101051.85;;;12.50;100.00
46127;BME280;31859;55.030;-1.550;2022-07-29T06:05:13;101041.51;;;11.70;100.00
46127;BME280;31859;55.030;-1.550;2022-07-29T06:07:40;101036.35;;;11.88;100.00
46127;BME280;31859;55.030;-1.550;2022-07-29T06:10:07;101039.53;;;12.17;100.00
46127;BME280;31859;55.030;-1.550;2022-07-29T06:12:34;101040.20;;;11.43;100.00
46127;BME280;31859;55.030;-1.550;2022-07-29T06:15:01;101038.78;;;12.18;100.00
46127;BME280;31859;55.030;-1.550;2022-07-29T06:17:29;101041.32;;;11.94;100.00
46127;BME280;31859;55.030;-1.550;2022-07-29T06:19:56;101041.11;;;11.93;100.00
46127;BME280;31859;55.030;-1.550;2022-07-29T06:22:23;101036.65;;;11.85;100.00
46127;BME280;31859;55.030;-1.550;2022-07-29T06:24:50;101035.61;;;11.97;100.00
46127;BME280;31859;55.030;-1.550;2022-07-29T06:27:17;101036.45;;;11.33;100.00
46127;BME280;31859;55.030;-1.550;2022-07-29T06:29:44;101036.19;;;11.80;100.00
46127;BME280;31859;55.030;-1.550;2022-07-29T06:32:12;101038.32;;;12.39;100.00
46127;BME280;31859;55.030;-1.550;2022-07-29T06:34:39;101043.21;;;12.06;100.00
46127;BME280;31859;55.030;-1.550;2022-07-29T06:37:06;101037.61;;;11.69;100.00
46127;BME280;31859;55.030;-1.550;2022-07-29T06:39:34;101041.87;;;11.52;100.00
46127;BME280;31859;55.030;-1.550;2022-07-29T06:42:01;101037.33;;;10.86;100.00
46127;BME280;31859;55.030;-1.550;2022-07-29T06:44:28;101035.77;;;11.46;100.00
46127;BME280;31859;55.030;-1.550;2022-07-29T06:46:56;101034.31;;;11.60;100.00
46127;BME280;31859;55.030;-1.550;2022-07-29T06:49:23;101033.17;;;11.82;100.00
46127;BME280;31859;55.030;-1.550;2022-07-29T06:51:50;101033.86;;;11.86;100.00
46127;BME280;31859;55.030;-1.550;2022-07-29T06:54:16;101034.31;;;11.39;100.00
46127;BME280;31859;55.030;-1.550;2022-07-29T06:56:44;101036.93;;;11.56;100.00
46127;BME280;31859;55.030;-1.550;2022-07-29T06:59:12;101040.21;;;11.72;100.00
46127;BME280;31859;55.030;-1.550;2022-07-29T07:01:41;101043.99;;;11.93;100.00
46127;BME280;31859;55.030;-1.550;2022-07-29T07:04:10;101036.34;;;12.42;100.00
46127;BME280;31859;55.030;-1.550;2022-07-29T07:06:38;101042.65;;;12.70;100.00
46127;BME280;31859;55.030;-1.550;2022-07-29T07:09:06;101045.17;;;12.01;100.00
46127;BME280;31859;55.030;-1.550;2022-07-29T07:11:33;101043.44;;;11.74;100.00
46127;BME280;31859;55.030;-1.550;2022-07-29T07:14:00;101043.55;;;12.25;100.00
46127;BME280;31859;55.030;-1.550;2022-07-29T07:16:28;101042.50;;;11.82;100.00
46127;BME280;31859;55.030;-1.550;2022-07-29T07:18:55;101048.39;;;12.43;100.00
46127;BME280;31859;55.030;-1.550;2022-07-29T07:21:22;101045.15;;;12.42;100.00
46127;BME280;31859;55.030;-1.550;2022-07-29T07:23:50;101047.11;;;12.64;100.00
46127;BME280;31859;55.030;-1.550;2022-07-29T07:26:17;101052.32;;;12.53;100.00
46127;BME280;31859;55.030;-1.550;2022-07-29T07:28:45;101052.45;;;12.24;100.00
46127;BME280;31859;55.030;-1.550;2022-07-29T07:31:12;101050.82;;;11.98;100.00
46127;BME280;31859;55.030;-1.550;2022-07-29T07:33:39;101057.07;;;12.40;100.00
46127;BME280;31859;55.030;-1.550;2022-07-29T07:36:06;101051.52;;;12.32;100.00
46127;BME280;31859;55.030;-1.550;2022-07-29T07:38:34;101050.16;;;12.14;100.00
46127;BME280;31859;55.030;-1.550;2022-07-29T07:41:02;101055.42;;;12.44;100.00
46127;BME280;31859;55.030;-1.550;2022-07-29T07:43:29;101049.86;;;12.85;100.00
46127;BME280;31859;55.030;-1.550;2022-07-29T07:45:57;101054.07;;;12.68;100.00
46127;BME280;31859;55.030;-1.550;2022-07-29T07:48:24;101054.06;;;12.83;100.00
46127;BME280;31859;55.030;-1.550;2022-07-29T07:50:51;101058.05;;;12.86;100.00
46127;BME280;31859;55.030;-1.550;2022-07-29T07:53:18;101055.43;;;12.72;100.00
46127;BME280;31859;55.030;-1.550;2022-07-29T07:55:45;101052.68;;;12.38;100.00
46127;BME280;31859;55.030;-1.550;2022-07-29T07:58:12;101056.92;;;12.68;100.00
46127;BME280;31859;55.030;-1.550;2022-07-29T08:00:39;101056.04;;;12.50;100.00
46127;BME280;31859;55.030;-1.550;2022-07-29T08:03:06;101060.25;;;12.54;100.00
46127;BME280;31859;55.030;-1.550;2022-07-29T08:05:33;101057.74;;;12.76;100.00
46127;BME280;31859;55.030;-1.550;2022-07-29T08:08:00;101065.00;;;12.48;100.00
46127;BME280;31859;55.030;-1.550;2022-07-29T08:10:27;101059.01;;;12.58;100.00
46127;BME280;31859;55.030;-1.550;2022-07-29T08:12:54;101060.17;;;13.10;100.00
46127;BME280;31859;55.030;-1.550;2022-07-29T08:15:21;101063.38;;;11.83;100.00
46127;BME280;31859;55.030;-1.550;2022-07-29T08:17:49;101058.82;;;12.63;100.00
46127;BME280;31859;55.030;-1.550;2022-07-29T08:20:16;101055.27;;;12.79;100.00
46127;BME280;31859;55.030;-1.550;2022-07-29T08:22:43;101058.71;;;12.99;100.00
46127;BME280;31859;55.030;-1.550;2022-07-29T08:25:10;101056.57;;;12.51;100.00
46127;BME280;31859;55.030;-1.550;2022-07-29T08:27:36;101056.39;;;13.04;100.00
46127;BME280;31859;55.030;-1.550;2022-07-29T08:30:04;101061.17;;;12.98;100.00
46127;BME280;31859;55.030;-1.550;2022-07-29T08:32:32;101059.93;;;13.07;100.00
46127;BME280;31859;55.030;-1.550;2022-07-29T08:34:59;101059.20;;;13.07;100.00
46127;BME280;31859;55.030;-1.550;2022-07-29T08:37:27;101058.16;;;13.06;100.00
46127;BME280;31859;55.030;-1.550;2022-07-29T08:39:53;101060.10;;;13.62;100.00
46127;BME280;31859;55.030;-1.550;2022-07-29T08:42:21;101057.93;;;14.64;100.00
46127;BME280;31859;55.030;-1.550;2022-07-29T08:44:48;101059.10;;;14.42;100.00
46127;BME280;31859;55.030;-1.550;2022-07-29T08:47:17;101060.87;;;14.18;100.00
46127;BME280;31859;55.030;-1.550;2022-07-29T08:49:44;101056.27;;;14.08;100.00
46127;BME280;31859;55.030;-1.550;2022-07-29T08:52:12;101052.64;;;13.16;100.00
46127;BME280;31859;55.030;-1.550;2022-07-29T08:54:43;101054.56;;;12.69;100.00
46127;BME280;31859;55.030;-1.550;2022-07-29T08:57:13;101050.26;;;13.15;100.00
46127;BME280;31859;55.030;-1.550;2022-07-29T08:59:42;101050.56;;;13.34;100.00
46127;BME280;31859;55.030;-1.550;2022-07-29T09:02:19;101049.72;;;13.54;100.00
46127;BME280;31859;55.030;-1.550;2022-07-29T09:04:47;101052.71;;;13.30;100.00
46127;BME280;31859;55.030;-1.550;2022-07-29T09:07:16;101048.25;;;13.24;100.00
46127;BME280;31859;55.030;-1.550;2022-07-29T09:09:44;101047.57;;;13.62;100.00
46127;BME280;31859;55.030;-1.550;2022-07-29T09:12:12;101048.55;;;13.86;100.00
46127;BME280;31859;55.030;-1.550;2022-07-29T09:14:39;101049.07;;;13.76;100.00
46127;BME280;31859;55.030;-1.550;2022-07-29T09:17:07;101053.16;;;14.14;100.00
46127;BME280;31859;55.030;-1.550;2022-07-29T09:19:37;101052.66;;;13.40;100.00
46127;BME280;31859;55.030;-1.550;2022-07-29T09:22:05;101055.36;;;13.78;100.00
46127;BME280;31859;55.030;-1.550;2022-07-29T09:24:41;101057.89;;;13.36;100.00
46127;BME280;31859;55.030;-1.550;2022-07-29T09:27:17;101051.81;;;13.15;100.00
46127;BME280;31859;55.030;-1.550;2022-07-29T09:29:45;101050.60;;;13.20;100.00
46127;BME280;31859;55.030;-1.550;2022-07-29T09:32:13;101043.76;;;13.39;100.00
46127;BME280;31859;55.030;-1.550;2022-07-29T09:34:40;101042.17;;;13.30;100.00
46127;BME280;31859;55.030;-1.550;2022-07-29T09:37:07;101042.36;;;13.39;100.00
46127;BME280;31859;55.030;-1.550;2022-07-29T09:39:39;101042.53;;;13.30;100.00
46127;BME280;31859;55.030;-1.550;2022-07-29T09:42:06;101044.21;;;13.11;100.00
46127;BME280;31859;55.030;-1.550;2022-07-29T09:44:42;101041.93;;;13.38;100.00
46127;BME280;31859;55.030;-1.550;2022-07-29T09:47:10;101045.36;;;13.13;100.00
46127;BME280;31859;55.030;-1.550;2022-07-29T09:49:51;101045.28;;;13.20;100.00
46127;BME280;31859;55.030;-1.550;2022-07-29T09:52:19;101048.99;;;13.48;100.00
46127;BME280;31859;55.030;-1.550;2022-07-29T09:54:47;101046.70;;;14.08;100.00
46127;BME280;31859;55.030;-1.550;2022-07-29T09:57:29;101049.70;;;13.90;100.00
46127;BME280;31859;55.030;-1.550;2022-07-29T09:59:59;101048.91;;;14.22;100.00
46127;BME280;31859;55.030;-1.550;2022-07-29T10:02:29;101061.99;;;14.01;100.00
46127;BME280;31859;55.030;-1.550;2022-07-29T10:04:56;101057.76;;;14.52;100.00
46127;BME280;31859;55.030;-1.550;2022-07-29T10:07:24;101064.89;;;14.53;100.00
46127;BME280;31859;55.030;-1.550;2022-07-29T10:09:53;101071.66;;;14.09;100.00
46127;BME280;31859;55.030;-1.550;2022-07-29T10:12:22;101072.14;;;14.65;100.00
46127;BME280;31859;55.030;-1.550;2022-07-29T10:14:50;101079.29;;;14.75;100.00
46127;BME280;31859;55.030;-1.550;2022-07-29T10:17:18;101080.75;;;15.31;100.00
46127;BME280;31859;55.030;-1.550;2022-07-29T10:19:46;101079.94;;;15.46;100.00
46127;BME280;31859;55.030;-1.550;2022-07-29T10:22:13;101079.58;;;15.78;100.00
46127;BME280;31859;55.030;-1.550;2022-07-29T10:24:40;101076.12;;;15.96;100.00
46127;BME280;31859;55.030;-1.550;2022-07-29T10:27:08;101084.48;;;16.48;100.00
46127;BME280;31859;55.030;-1.550;2022-07-29T10:29:36;101077.88;;;17.17;100.00
46127;BME280;31859;55.030;-1.550;2022-07-29T10:32:29;101079.88;;;16.87;100.00
46127;BME280;31859;55.030;-1.550;2022-07-29T10:35:18;101078.59;;;16.81;100.00
46127;BME280;31859;55.030;-1.550;2022-07-29T10:38:04;101075.49;;;16.40;100.00
46127;BME280;31859;55.030;-1.550;2022-07-29T10:40:41;101077.47;;;16.64;100.00
46127;BME280;31859;55.030;-1.550;2022-07-29T10:43:18;101079.17;;;16.01;100.00
46127;BME280;31859;55.030;-1.550;2022-07-29T10:45:48;101075.96;;;16.96;100.00
46127;BME280;31859;55.030;-1.550;2022-07-29T10:48:16;101078.39;;;15.73;100.00
46127;BME280;31859;55.030;-1.550;2022-07-29T10:50:54;101081.79;;;16.52;100.00
46127;BME280;31859;55.030;-1.550;2022-07-29T10:53:23;101077.42;;;16.52;100.00
46127;BME280;31859;55.030;-1.550;2022-07-29T10:55:51;101076.21;;;16.10;100.00
46127;BME280;31859;55.030;-1.550;2022-07-29T10:58:21;101077.92;;;15.90;100.00
46127;BME280;31859;55.030;-1.550;2022-07-29T11:00:49;101074.87;;;16.13;100.00
46127;BME280;31859;55.030;-1.550;2022-07-29T11:03:49;101078.52;;;16.14;100.00
46127;BME280;31859;55.030;-1.550;2022-07-29T11:06:17;101080.47;;;15.64;100.00
46127;BME280;31859;55.030;-1.550;2022-07-29T11:08:44;101080.93;;;15.58;100.00
46127;BME280;31859;55.030;-1.550;2022-07-29T11:11:31;101079.25;;;15.48;100.00
46127;BME280;31859;55.030;-1.550;2022-07-29T11:13:58;101079.28;;;15.23;100.00
46127;BME280;31859;55.030;-1.550;2022-07-29T11:16:25;101073.60;;;15.83;100.00
46127;BME280;31859;55.030;-1.550;2022-07-29T11:19:24;101071.54;;;15.51;100.00
46127;BME280;31859;55.030;-1.550;2022-07-29T11:21:52;101073.63;;;14.83;100.00
46127;BME280;31859;55.030;-1.550;2022-07-29T11:24:21;101079.89;;;15.62;100.00
46127;BME280;31859;55.030;-1.550;2022-07-29T11:27:21;101078.76;;;15.09;100.00
46127;BME280;31859;55.030;-1.550;2022-07-29T11:29:52;101074.03;;;14.95;100.00
46127;BME280;31859;55.030;-1.550;2022-07-29T11:32:21;101073.97;;;15.59;100.00
46127;BME280;31859;55.030;-1.550;2022-07-29T11:34:49;101072.07;;;15.66;100.00
46127;BME280;31859;55.030;-1.550;2022-07-29T11:37:25;101070.51;;;14.81;100.00
46127;BME280;31859;55.030;-1.550;2022-07-29T11:40:11;101064.08;;;14.64;100.00
46127;BME280;31859;55.030;-1.550;2022-07-29T11:42:45;101067.98;;;14.74;100.00
46127;BME280;31859;55.030;-1.550;2022-07-29T11:45:14;101070.09;;;14.37;100.00
46127;BME280;31859;55.030;-1.550;2022-07-29T11:47:48;101072.21;;;14.88;100.00
46127;BME280;31859;55.030;-1.550;2022-07-29T11:50:16;101074.38;;;15.13;100.00
46127;BME280;31859;55.030;-1.550;2022-07-29T11:52:45;101071.83;;;15.53;100.00
46127;BME280;31859;55.030;-1.550;2022-07-29T11:55:15;101072.47;;;15.59;100.00
46127;BME280;31859;55.030;-1.550;2022-07-29T11:57:47;101072.48;;;15.65;100.00
46127;BME280;31859;55.030;-1.550;2022-07-29T12:00:23;101073.08;;;15.49;100.00
46127;BME280;31859;55.030;-1.550;2022-07-29T12:02:51;101065.83;;;15.44;100.00
46127;BME280;31859;55.030;-1.550;2022-07-29T12:05:19;101061.95;;;15.05;100.00
46127;BME280;31859;55.030;-1.550;2022-07-29T12:07:47;101065.86;;;15.24;100.00
46127;BME280;31859;55.030;-1.550;2022-07-29T12:10:15;101062.37;;;14.92;100.00
46127;BME280;31859;55.030;-1.550;2022-07-29T12:12:43;101054.81;;;15.23;100.00
46127;BME280;31859;55.030;-1.550;2022-07-29T12:15:18;101066.65;;;17.45;100.00
46127;BME280;31859;55.030;-1.550;2022-07-29T12:17:47;101058.31;;;18.25;100.00
46127;BME280;31859;55.030;-1.550;2022-07-29T12:20:22;101056.94;;;17.97;100.00
46127;BME280;31859;55.030;-1.550;2022-07-29T12:22:50;101050.90;;;17.79;100.00
46127;BME280;31859;55.030;-1.550;2022-07-29T12:25:16;101063.23;;;17.76;100.00
46127;BME280;31859;55.030;-1.550;2022-07-29T12:27:44;101053.32;;;17.54;100.00
46127;BME280;31859;55.030;-1.550;2022-07-29T12:30:14;101047.12;;;17.88;100.00
46127;BME280;31859;55.030;-1.550;2022-07-29T12:32:47;101043.47;;;17.72;100.00
46127;BME280;31859;55.030;-1.550;2022-07-29T12:35:17;101038.84;;;19.94;100.00
46127;BME280;31859;55.030;-1.550;2022-07-29T12:37:46;101031.57;;;20.61;100.00
46127;BME280;31859;55.030;-1.550;2022-07-29T12:40:16;101032.08;;;20.29;100.00
46127;BME280;31859;55.030;-1.550;2022-07-29T12:43:05;101036.24;;;20.30;100.00